sensor_id;sensor_type;location;lat;lon;timestamp;P1;durP1;ratioP1;P2;durP2;ratioP2
5931;SDS011;2991;49.368;8.528;2022-08-19T00:00:20;12.65;;;11.45;;
5931;SDS011;2991;49.368;8.528;2022-08-19T00:02:47;13.73;;;11.80;;
5931;SDS011;2991;49.368;8.528;2022-08-19T00:05:15;12.73;;;11.50;;
5931;SDS011;2991;49.368;8.528;2022-08-19T00:07:42;13.80;;;12.23;;
5931;SDS011;2991;49.368;8.528;2022-08-19T00:10:09;12.73;;;11.50;;
5931;SDS011;2991;49.368;8.528;2022-08-19T00:12:36;13.10;;;11.80;;
5931;SDS011;2991;49.368;8.528;2022-08-19T00:15:03;13.50;;;11.63;;
5931;SDS011;2991;49.368;8.528;2022-08-19T00:17:36;13.00;;;11.70;;
5931;SDS011;2991;49.368;8.528;2022-08-19T00:20:02;12.50;;;11.30;;
5931;SDS011;2991;49.368;8.528;2022-08-19T00:22:28;14.20;;;12.80;;
5931;SDS011;2991;49.368;8.528;2022-08-19T00:24:54;13.27;;;11.90;;
5931;SDS011;2991;49.368;8.528;2022-08-19T00:27:19;13.27;;;11.65;;
5931;SDS011;2991;49.368;8.528;2022-08-19T00:29:45;12.90;;;11.65;;
5931;SDS011;2991;49.368;8.528;2022-08-19T00:32:11;13.40;;;11.83;;
5931;SDS011;2991;49.368;8.528;2022-08-19T00:34:37;13.10;;;11.80;;
5931;SDS011;2991;49.368;8.528;2022-08-19T00:37:02;12.23;;;10.93;;
5931;SDS011;2991;49.368;8.528;2022-08-19T00:39:28;12.43;;;11.33;;
5931;SDS011;2991;49.368;8.528;2022-08-19T00:41:54;12.43;;;11.23;;
5931;SDS011;2991;49.368;8.528;2022-08-19T00:44:26;13.70;;;12.30;;
5931;SDS011;2991;49.368;8.528;2022-08-19T00:46:54;12.83;;;11.53;;
5931;SDS011;2991;49.368;8.528;2022-08-19T00:52:04;13.07;;;11.70;;
5931;SDS011;2991;49.368;8.528;2022-08-19T00:54:33;12.53;;;11.33;;
5931;SDS011;2991;49.368;8.528;2022-08-19T00:57:02;12.50;;;11.40;;
5931;SDS011;2991;49.368;8.528;2022-08-19T00:59:34;12.67;;;11.47;;
5931;SDS011;2991;49.368;8.528;2022-08-19T01:02:01;12.90;;;11.70;;
5931;SDS011;2991;49.368;8.528;2022-08-19T01:04:27;13.53;;;12.23;;
5931;SDS011;2991;49.368;8.528;2022-08-19T01:06:52;13.53;;;12.23;;
5931;SDS011;2991;49.368;8.528;2022-08-19T01:09:18;12.73;;;11.47;;
5931;SDS011;2991;49.368;8.528;2022-08-19T01:11:44;12.70;;;11.50;;
5931;SDS011;2991;49.368;8.528;2022-08-19T01:14:10;13.33;;;12.03;;
5931;SDS011;2991;49.368;8.528;2022-08-19T01:16:37;13.27;;;12.07;;
5931;SDS011;2991;49.368;8.528;2022-08-19T01:19:09;14.40;;;13.00;;
5931;SDS011;2991;49.368;8.528;2022-08-19T01:21:51;12.97;;;11.67;;
5931;SDS011;2991;49.368;8.528;2022-08-19T01:24:24;13.93;;;12.57;;
5931;SDS011;2991;49.368;8.528;2022-08-19T01:26:50;12.93;;;11.73;;
5931;SDS011;2991;49.368;8.528;2022-08-19T01:29:16;13.80;;;12.07;;
5931;SDS011;2991;49.368;8.528;2022-08-19T01:31:42;12.80;;;11.53;;
5931;SDS011;2991;49.368;8.528;2022-08-19T01:34:07;13.07;;;11.87;;
5931;SDS011;2991;49.368;8.528;2022-08-19T01:36:36;13.10;;;11.90;;
5931;SDS011;2991;49.368;8.528;2022-08-19T01:39:08;12.50;;;11.37;;
5931;SDS011;2991;49.368;8.528;2022-08-19T01:41:36;13.67;;;12.43;;
5931;SDS011;2991;49.368;8.528;2022-08-19T01:44:04;13.10;;;11.80;;
5931;SDS011;2991;49.368;8.528;2022-08-19T01:46:31;13.40;;;12.00;;
5931;SDS011;2991;49.368;8.528;2022-08-19T01:48:58;14.10;;;12.70;;
5931;SDS011;2991;49.368;8.528;2022-08-19T01:51:23;13.13;;;11.80;;
5931;SDS011;2991;49.368;8.528;2022-08-19T01:53:49;13.07;;;11.87;;
5931;SDS011;2991;49.368;8.528;2022-08-19T01:56:16;13.00;;;11.80;;
5931;SDS011;2991;49.368;8.528;2022-08-19T01:58:44;13.70;;;12.30;;
5931;SDS011;2991;49.368;8.528;2022-08-19T02:01:16;13.53;;;12.23;;
5931;SDS011;2991;49.368;8.528;2022-08-19T02:03:42;12.63;;;11.43;;
5931;SDS011;2991;49.368;8.528;2022-08-19T02:06:08;13.43;;;12.23;;
5931;SDS011;2991;49.368;8.528;2022-08-19T02:08:35;12.53;;;11.33;;
5931;SDS011;2991;49.368;8.528;2022-08-19T02:11:02;13.07;;;11.83;;
5931;SDS011;2991;49.368;8.528;2022-08-19T02:13:28;12.60;;;11.50;;
5931;SDS011;2991;49.368;8.528;2022-08-19T02:15:54;12.50;;;10.80;;
5931;SDS011;2991;49.368;8.528;2022-08-19T02:18:19;13.50;;;12.23;;
5931;SDS011;2991;49.368;8.528;2022-08-19T02:20:45;13.23;;;12.03;;
5931;SDS011;2991;49.368;8.528;2022-08-19T02:23:12;14.10;;;12.80;;
5931;SDS011;2991;49.368;8.528;2022-08-19T02:25:39;13.93;;;12.30;;
5931;SDS011;2991;49.368;8.528;2022-08-19T02:28:06;13.43;;;12.17;;
5931;SDS011;2991;49.368;8.528;2022-08-19T02:30:31;13.90;;;12.60;;
5931;SDS011;2991;49.368;8.528;2022-08-19T02:32:57;13.20;;;12.00;;
5931;SDS011;2991;49.368;8.528;2022-08-19T02:35:23;13.37;;;12.03;;
5931;SDS011;2991;49.368;8.528;2022-08-19T02:37:49;13.73;;;12.27;;
5931;SDS011;2991;49.368;8.528;2022-08-19T02:40:33;13.57;;;12.27;;
5931;SDS011;2991;49.368;8.528;2022-08-19T02:43:00;13.43;;;12.10;;
5931;SDS011;2991;49.368;8.528;2022-08-19T02:45:27;13.80;;;12.40;;
5931;SDS011;2991;49.368;8.528;2022-08-19T02:47:56;12.97;;;11.70;;
5931;SDS011;2991;49.368;8.528;2022-08-19T02:50:22;12.97;;;11.77;;
5931;SDS011;2991;49.368;8.528;2022-08-19T02:52:47;13.57;;;12.27;;
5931;SDS011;2991;49.368;8.528;2022-08-19T02:55:13;13.37;;;12.17;;
5931;SDS011;2991;49.368;8.528;2022-08-19T02:57:38;13.43;;;12.13;;
5931;SDS011;2991;49.368;8.528;2022-08-19T03:00:05;12.77;;;11.57;;
5931;SDS011;2991;49.368;8.528;2022-08-19T03:02:31;12.60;;;11.50;;
5931;SDS011;2991;49.368;8.528;2022-08-19T03:04:57;13.97;;;12.57;;
5931;SDS011;2991;49.368;8.528;2022-08-19T03:07:23;14.63;;;13.13;;
5931;SDS011;2991;49.368;8.528;2022-08-19T03:09:48;13.23;;;12.03;;
5931;SDS011;2991;49.368;8.528;2022-08-19T03:12:14;13.70;;;12.40;;
5931;SDS011;2991;49.368;8.528;2022-08-19T03:14:39;14.23;;;12.93;;
5931;SDS011;2991;49.368;8.528;2022-08-19T03:17:05;12.77;;;11.60;;
5931;SDS011;2991;49.368;8.528;2022-08-19T03:19:30;12.60;;;11.50;;
5931;SDS011;2991;49.368;8.528;2022-08-19T03:21:56;14.27;;;11.97;;
5931;SDS011;2991;49.368;8.528;2022-08-19T03:24:23;13.23;;;11.97;;
5931;SDS011;2991;49.368;8.528;2022-08-19T03:26:50;13.60;;;12.40;;
5931;SDS011;2991;49.368;8.528;2022-08-19T03:29:18;13.73;;;12.43;;
5931;SDS011;2991;49.368;8.528;2022-08-19T03:31:45;13.47;;;12.17;;
5931;SDS011;2991;49.368;8.528;2022-08-19T03:34:15;13.27;;;11.97;;
5931;SDS011;2991;49.368;8.528;2022-08-19T03:36:42;13.07;;;11.87;;
5931;SDS011;2991;49.368;8.528;2022-08-19T03:39:09;13.40;;;12.30;;
5931;SDS011;2991;49.368;8.528;2022-08-19T03:41:39;13.97;;;12.67;;
5931;SDS011;2991;49.368;8.528;2022-08-19T03:44:05;13.23;;;12.07;;
5931;SDS011;2991;49.368;8.528;2022-08-19T03:46:33;12.33;;;11.23;;
5931;SDS011;2991;49.368;8.528;2022-08-19T03:49:00;13.57;;;12.30;;
5931;SDS011;2991;49.368;8.528;2022-08-19T03:51:33;12.27;;;11.07;;
5931;SDS011;2991;49.368;8.528;2022-08-19T03:54:02;13.00;;;11.90;;
5931;SDS011;2991;49.368;8.528;2022-08-19T03:56:30;13.93;;;12.53;;
5931;SDS011;2991;49.368;8.528;2022-08-19T03:58:56;13.10;;;11.90;;
5931;SDS011;2991;49.368;8.528;2022-08-19T04:01:25;13.57;;;12.20;;
5931;SDS011;2991;49.368;8.528;2022-08-19T04:03:52;16.93;;;11.80;;
5931;SDS011;2991;49.368;8.528;2022-08-19T04:06:25;14.97;;;12.97;;
5931;SDS011;2991;49.368;8.528;2022-08-19T04:08:53;13.87;;;12.60;;
5931;SDS011;2991;49.368;8.528;2022-08-19T04:11:23;12.80;;;11.70;;
5931;SDS011;2991;49.368;8.528;2022-08-19T04:13:51;12.80;;;11.60;;
5931;SDS011;2991;49.368;8.528;2022-08-19T04:16:18;12.70;;;11.50;;
5931;SDS011;2991;49.368;8.528;2022-08-19T04:18:45;12.70;;;11.50;;
5931;SDS011;2991;49.368;8.528;2022-08-19T04:21:17;13.70;;;12.50;;
5931;SDS011;2991;49.368;8.528;2022-08-19T04:23:44;13.17;;;11.97;;
5931;SDS011;2991;49.368;8.528;2022-08-19T04:26:14;16.13;;;12.73;;
5931;SDS011;2991;49.368;8.528;2022-08-19T04:28:41;16.03;;;12.80;;
5931;SDS011;2991;49.368;8.528;2022-08-19T04:31:11;12.90;;;11.80;;
5931;SDS011;2991;49.368;8.528;2022-08-19T04:33:39;13.40;;;12.00;;
5931;SDS011;2991;49.368;8.528;2022-08-19T04:36:05;13.07;;;11.93;;
5931;SDS011;2991;49.368;8.528;2022-08-19T04:38:30;13.27;;;12.10;;
5931;SDS011;2991;49.368;8.528;2022-08-19T04:40:56;13.50;;;12.30;;
5931;SDS011;2991;49.368;8.528;2022-08-19T04:43:40;13.60;;;12.20;;
5931;SDS011;2991;49.368;8.528;2022-08-19T04:46:06;13.23;;;12.00;;
5931;SDS011;2991;49.368;8.528;2022-08-19T04:48:34;12.83;;;11.73;;
5931;SDS011;2991;49.368;8.528;2022-08-19T04:51:00;13.17;;;12.07;;
5931;SDS011;2991;49.368;8.528;2022-08-19T04:53:27;13.40;;;12.10;;
5931;SDS011;2991;49.368;8.528;2022-08-19T04:55:54;12.57;;;11.43;;
5931;SDS011;2991;49.368;8.528;2022-08-19T04:58:21;12.73;;;11.53;;
5931;SDS011;2991;49.368;8.528;2022-08-19T05:00:47;12.63;;;11.43;;
5931;SDS011;2991;49.368;8.528;2022-08-19T05:03:13;12.80;;;11.60;;
5931;SDS011;2991;49.368;8.528;2022-08-19T05:05:42;12.63;;;11.43;;
5931;SDS011;2991;49.368;8.528;2022-08-19T05:08:13;13.17;;;12.00;;
5931;SDS011;2991;49.368;8.528;2022-08-19T05:10:45;12.23;;;11.23;;
5931;SDS011;2991;49.368;8.528;2022-08-19T05:13:15;12.03;;;10.90;;
5931;SDS011;2991;49.368;8.528;2022-08-19T05:15:43;12.57;;;11.37;;
5931;SDS011;2991;49.368;8.528;2022-08-19T05:18:08;13.13;;;12.00;;
5931;SDS011;2991;49.368;8.528;2022-08-19T05:20:53;12.37;;;11.27;;
5931;SDS011;2991;49.368;8.528;2022-08-19T05:23:37;12.30;;;11.10;;
5931;SDS011;2991;49.368;8.528;2022-08-19T05:26:03;14.73;;;12.10;;
5931;SDS011;2991;49.368;8.528;2022-08-19T05:28:29;14.00;;;11.93;;
5931;SDS011;2991;49.368;8.528;2022-08-19T05:30:55;12.87;;;11.50;;
5931;SDS011;2991;49.368;8.528;2022-08-19T05:33:21;11.63;;;10.70;;
5931;SDS011;2991;49.368;8.528;2022-08-19T05:35:48;11.85;;;10.75;;
5931;SDS011;2991;49.368;8.528;2022-08-19T05:38:14;12.70;;;11.60;;
5931;SDS011;2991;49.368;8.528;2022-08-19T05:40:41;12.00;;;10.80;;
5931;SDS011;2991;49.368;8.528;2022-08-19T05:43:12;13.33;;;12.00;;
5931;SDS011;2991;49.368;8.528;2022-08-19T05:45:41;12.00;;;10.90;;
5931;SDS011;2991;49.368;8.528;2022-08-19T05:48:08;13.20;;;11.80;;
5931;SDS011;2991;49.368;8.528;2022-08-19T05:50:38;12.80;;;11.70;;
5931;SDS011;2991;49.368;8.528;2022-08-19T05:53:05;12.90;;;11.80;;
5931;SDS011;2991;49.368;8.528;2022-08-19T05:55:31;12.40;;;11.30;;
5931;SDS011;2991;49.368;8.528;2022-08-19T05:57:56;11.67;;;10.63;;
5931;SDS011;2991;49.368;8.528;2022-08-19T06:00:22;11.93;;;10.83;;
5931;SDS011;2991;49.368;8.528;2022-08-19T06:02:49;11.27;;;10.17;;
5931;SDS011;2991;49.368;8.528;2022-08-19T06:05:15;12.83;;;10.70;;
5931;SDS011;2991;49.368;8.528;2022-08-19T06:07:41;12.00;;;10.90;;
5931;SDS011;2991;49.368;8.528;2022-08-19T06:10:08;11.37;;;10.37;;
5931;SDS011;2991;49.368;8.528;2022-08-19T06:12:36;11.33;;;10.23;;
5931;SDS011;2991;49.368;8.528;2022-08-19T06:15:06;11.57;;;10.30;;
5931;SDS011;2991;49.368;8.528;2022-08-19T06:17:37;11.90;;;10.70;;
5931;SDS011;2991;49.368;8.528;2022-08-19T06:20:04;12.13;;;11.03;;
5931;SDS011;2991;49.368;8.528;2022-08-19T06:22:31;11.30;;;10.30;;
5931;SDS011;2991;49.368;8.528;2022-08-19T06:25:09;11.73;;;10.63;;
5931;SDS011;2991;49.368;8.528;2022-08-19T06:27:36;11.77;;;10.77;;
5931;SDS011;2991;49.368;8.528;2022-08-19T06:30:05;10.67;;;9.77;;
5931;SDS011;2991;49.368;8.528;2022-08-19T06:32:31;12.03;;;10.97;;
5931;SDS011;2991;49.368;8.528;2022-08-19T06:34:57;11.10;;;10.10;;
5931;SDS011;2991;49.368;8.528;2022-08-19T06:37:23;11.03;;;10.13;;
5931;SDS011;2991;49.368;8.528;2022-08-19T06:39:49;10.80;;;9.85;;
5931;SDS011;2991;49.368;8.528;2022-08-19T06:42:15;10.57;;;9.60;;
5931;SDS011;2991;49.368;8.528;2022-08-19T06:44:43;11.63;;;10.53;;
5931;SDS011;2991;49.368;8.528;2022-08-19T06:47:14;10.80;;;9.80;;
5931;SDS011;2991;49.368;8.528;2022-08-19T06:49:42;9.83;;;9.03;;
5931;SDS011;2991;49.368;8.528;2022-08-19T06:52:08;10.37;;;9.47;;
5931;SDS011;2991;49.368;8.528;2022-08-19T06:54:36;10.60;;;9.80;;
5931;SDS011;2991;49.368;8.528;2022-08-19T06:57:04;10.00;;;9.20;;
5931;SDS011;2991;49.368;8.528;2022-08-19T06:59:30;10.43;;;9.53;;
5931;SDS011;2991;49.368;8.528;2022-08-19T07:01:58;11.03;;;9.93;;
5931;SDS011;2991;49.368;8.528;2022-08-19T07:04:26;11.20;;;10.20;;
5931;SDS011;2991;49.368;8.528;2022-08-19T07:07:03;10.20;;;9.40;;
5931;SDS011;2991;49.368;8.528;2022-08-19T07:09:33;10.73;;;9.73;;
5931;SDS011;2991;49.368;8.528;2022-08-19T07:11:59;10.80;;;9.83;;
5931;SDS011;2991;49.368;8.528;2022-08-19T07:14:26;9.60;;;8.90;;
5931;SDS011;2991;49.368;8.528;2022-08-19T07:16:53;9.63;;;8.83;;
5931;SDS011;2991;49.368;8.528;2022-08-19T07:19:21;10.33;;;9.50;;
5931;SDS011;2991;49.368;8.528;2022-08-19T07:21:49;10.27;;;9.37;;
5931;SDS011;2991;49.368;8.528;2022-08-19T07:24:17;10.70;;;9.80;;
5931;SDS011;2991;49.368;8.528;2022-08-19T07:26:44;9.73;;;8.93;;
5931;SDS011;2991;49.368;8.528;2022-08-19T07:29:11;10.63;;;9.60;;
5931;SDS011;2991;49.368;8.528;2022-08-19T07:31:37;10.00;;;9.20;;
5931;SDS011;2991;49.368;8.528;2022-08-19T07:34:03;9.90;;;9.00;;
5931;SDS011;2991;49.368;8.528;2022-08-19T07:36:34;10.53;;;9.60;;
5931;SDS011;2991;49.368;8.528;2022-08-19T07:39:03;9.20;;;8.30;;
5931;SDS011;2991;49.368;8.528;2022-08-19T07:41:32;10.10;;;9.23;;
5931;SDS011;2991;49.368;8.528;2022-08-19T07:43:59;9.57;;;8.67;;
5931;SDS011;2991;49.368;8.528;2022-08-19T07:46:30;10.20;;;9.30;;
5931;SDS011;2991;49.368;8.528;2022-08-19T07:48:56;9.53;;;8.73;;
5931;SDS011;2991;49.368;8.528;2022-08-19T07:51:22;9.70;;;8.90;;
5931;SDS011;2991;49.368;8.528;2022-08-19T07:53:48;9.17;;;8.37;;
5931;SDS011;2991;49.368;8.528;2022-08-19T07:56:15;8.47;;;7.87;;
5931;SDS011;2991;49.368;8.528;2022-08-19T07:58:43;8.50;;;7.80;;
5931;SDS011;2991;49.368;8.528;2022-08-19T08:01:11;9.23;;;8.43;;
5931;SDS011;2991;49.368;8.528;2022-08-19T08:03:40;9.30;;;8.37;;
5931;SDS011;2991;49.368;8.528;2022-08-19T08:06:25;9.67;;;8.87;;
5931;SDS011;2991;49.368;8.528;2022-08-19T08:09:09;9.43;;;8.63;;
5931;SDS011;2991;49.368;8.528;2022-08-19T08:11:36;9.20;;;8.40;;
5931;SDS011;2991;49.368;8.528;2022-08-19T08:14:06;8.40;;;7.77;;
5931;SDS011;2991;49.368;8.528;2022-08-19T08:16:34;9.03;;;8.13;;
5931;SDS011;2991;49.368;8.528;2022-08-19T08:19:01;8.67;;;7.97;;
5931;SDS011;2991;49.368;8.528;2022-08-19T08:21:28;9.00;;;8.30;;
5931;SDS011;2991;49.368;8.528;2022-08-19T08:23:53;8.90;;;8.10;;
5931;SDS011;2991;49.368;8.528;2022-08-19T08:26:20;8.63;;;7.83;;
5931;SDS011;2991;49.368;8.528;2022-08-19T08:28:45;9.50;;;8.63;;
5931;SDS011;2991;49.368;8.528;2022-08-19T08:31:12;8.57;;;7.80;;
5931;SDS011;2991;49.368;8.528;2022-08-19T08:33:37;9.00;;;8.17;;
5931;SDS011;2991;49.368;8.528;2022-08-19T08:36:06;8.67;;;7.67;;
5931;SDS011;2991;49.368;8.528;2022-08-19T08:38:32;7.63;;;7.00;;
5931;SDS011;2991;49.368;8.528;2022-08-19T08:41:05;8.20;;;7.47;;
5931;SDS011;2991;49.368;8.528;2022-08-19T08:43:44;8.67;;;7.90;;
5931;SDS011;2991;49.368;8.528;2022-08-19T08:46:26;8.10;;;7.30;;
5931;SDS011;2991;49.368;8.528;2022-08-19T08:49:16;8.00;;;7.30;;
5931;SDS011;2991;49.368;8.528;2022-08-19T08:51:49;7.67;;;7.07;;
5931;SDS011;2991;49.368;8.528;2022-08-19T08:54:26;7.30;;;6.70;;
5931;SDS011;2991;49.368;8.528;2022-08-19T08:56:56;8.30;;;7.70;;
5931;SDS011;2991;49.368;8.528;2022-08-19T08:59:26;6.82;;;6.32;;
5931;SDS011;2991;49.368;8.528;2022-08-19T09:01:57;7.22;;;6.63;;
5931;SDS011;2991;49.368;8.528;2022-08-19T09:04:23;7.53;;;6.83;;
5931;SDS011;2991;49.368;8.528;2022-08-19T09:09:43;7.60;;;7.00;;
5931;SDS011;2991;49.368;8.528;2022-08-19T09:14:55;7.15;;;6.57;;
5931;SDS011;2991;49.368;8.528;2022-08-19T09:17:29;6.97;;;6.47;;
5931;SDS011;2991;49.368;8.528;2022-08-19T09:19:57;7.25;;;6.72;;
5931;SDS011;2991;49.368;8.528;2022-08-19T09:22:32;6.72;;;6.22;;
5931;SDS011;2991;49.368;8.528;2022-08-19T09:24:58;6.73;;;6.13;;
5931;SDS011;2991;49.368;8.528;2022-08-19T09:27:25;6.30;;;5.88;;
5931;SDS011;2991;49.368;8.528;2022-08-19T09:29:52;6.77;;;6.27;;
5931;SDS011;2991;49.368;8.528;2022-08-19T09:32:18;6.07;;;5.68;;
5931;SDS011;2991;49.368;8.528;2022-08-19T09:34:44;7.10;;;6.60;;
5931;SDS011;2991;49.368;8.528;2022-08-19T09:37:10;5.90;;;5.50;;
5931;SDS011;2991;49.368;8.528;2022-08-19T09:39:37;9.10;;;6.50;;
5931;SDS011;2991;49.368;8.528;2022-08-19T09:42:03;6.22;;;5.65;;
5931;SDS011;2991;49.368;8.528;2022-08-19T09:44:29;6.30;;;5.85;;
5931;SDS011;2991;49.368;8.528;2022-08-19T09:46:55;7.82;;;7.22;;
5931;SDS011;2991;49.368;8.528;2022-08-19T09:49:21;6.22;;;5.75;;
5931;SDS011;2991;49.368;8.528;2022-08-19T09:51:49;6.55;;;6.15;;
5931;SDS011;2991;49.368;8.528;2022-08-19T09:54:15;6.70;;;6.15;;
5931;SDS011;2991;49.368;8.528;2022-08-19T09:56:41;5.80;;;5.40;;
5931;SDS011;2991;49.368;8.528;2022-08-19T09:59:06;6.03;;;5.57;;
5931;SDS011;2991;49.368;8.528;2022-08-19T10:01:32;6.05;;;5.50;;
5931;SDS011;2991;49.368;8.528;2022-08-19T10:03:59;6.35;;;5.85;;
5931;SDS011;2991;49.368;8.528;2022-08-19T10:06:27;6.22;;;5.78;;
5931;SDS011;2991;49.368;8.528;2022-08-19T10:08:56;5.90;;;5.40;;
5931;SDS011;2991;49.368;8.528;2022-08-19T10:11:22;6.10;;;5.60;;
5931;SDS011;2991;49.368;8.528;2022-08-19T10:13:48;5.80;;;5.40;;
5931;SDS011;2991;49.368;8.528;2022-08-19T10:16:17;5.47;;;5.07;;
5931;SDS011;2991;49.368;8.528;2022-08-19T10:18:46;5.60;;;5.20;;
5931;SDS011;2991;49.368;8.528;2022-08-19T10:21:13;6.32;;;5.80;;
5931;SDS011;2991;49.368;8.528;2022-08-19T10:23:42;5.85;;;5.35;;
5931;SDS011;2991;49.368;8.528;2022-08-19T10:26:16;5.50;;;5.20;;
5931;SDS011;2991;49.368;8.528;2022-08-19T10:28:43;6.00;;;5.60;;
5931;SDS011;2991;49.368;8.528;2022-08-19T10:31:11;5.63;;;5.22;;
5931;SDS011;2991;49.368;8.528;2022-08-19T10:33:42;5.53;;;5.13;;
5931;SDS011;2991;49.368;8.528;2022-08-19T10:36:18;5.57;;;5.03;;
5931;SDS011;2991;49.368;8.528;2022-08-19T10:38:48;6.22;;;5.70;;
5931;SDS011;2991;49.368;8.528;2022-08-19T10:41:20;5.80;;;5.40;;
5931;SDS011;2991;49.368;8.528;2022-08-19T10:43:49;6.32;;;5.82;;
5931;SDS011;2991;49.368;8.528;2022-08-19T10:46:17;5.78;;;5.28;;
5931;SDS011;2991;49.368;8.528;2022-08-19T10:48:43;6.00;;;5.50;;
5931;SDS011;2991;49.368;8.528;2022-08-19T10:51:10;5.60;;;5.20;;
5931;SDS011;2991;49.368;8.528;2022-08-19T10:53:55;5.07;;;4.68;;
5931;SDS011;2991;49.368;8.528;2022-08-19T10:56:29;5.18;;;4.78;;
5931;SDS011;2991;49.368;8.528;2022-08-19T10:59:14;5.88;;;5.47;;
5931;SDS011;2991;49.368;8.528;2022-08-19T11:01:42;5.43;;;5.07;;
5931;SDS011;2991;49.368;8.528;2022-08-19T11:04:12;5.32;;;4.93;;
5931;SDS011;2991;49.368;8.528;2022-08-19T11:06:41;7.00;;;5.50;;
5931;SDS011;2991;49.368;8.528;2022-08-19T11:09:08;8.07;;;4.90;;
5931;SDS011;2991;49.368;8.528;2022-08-19T11:11:35;5.85;;;5.20;;
5931;SDS011;2991;49.368;8.528;2022-08-19T11:14:05;6.97;;;6.35;;
5931;SDS011;2991;49.368;8.528;2022-08-19T11:16:34;5.68;;;5.13;;
5931;SDS011;2991;49.368;8.528;2022-08-19T11:19:00;5.70;;;5.20;;
5931;SDS011;2991;49.368;8.528;2022-08-19T11:21:31;5.72;;;5.25;;
5931;SDS011;2991;49.368;8.528;2022-08-19T11:24:00;5.15;;;4.78;;
5931;SDS011;2991;49.368;8.528;2022-08-19T11:26:28;5.70;;;5.10;;
5931;SDS011;2991;49.368;8.528;2022-08-19T11:29:07;5.72;;;5.13;;
5931;SDS011;2991;49.368;8.528;2022-08-19T11:31:39;6.78;;;6.18;;
5931;SDS011;2991;49.368;8.528;2022-08-19T11:34:07;6.63;;;5.18;;
5931;SDS011;2991;49.368;8.528;2022-08-19T11:36:36;5.35;;;4.95;;
5931;SDS011;2991;49.368;8.528;2022-08-19T11:39:04;6.97;;;5.40;;
5931;SDS011;2991;49.368;8.528;2022-08-19T11:41:31;6.07;;;5.57;;
5931;SDS011;2991;49.368;8.528;2022-08-19T11:43:57;5.97;;;5.50;;
5931;SDS011;2991;49.368;8.528;2022-08-19T11:46:23;6.57;;;5.07;;
5931;SDS011;2991;49.368;8.528;2022-08-19T11:48:50;5.40;;;5.00;;
5931;SDS011;2991;49.368;8.528;2022-08-19T11:51:18;6.25;;;5.72;;
5931;SDS011;2991;49.368;8.528;2022-08-19T11:53:46;6.35;;;5.70;;
5931;SDS011;2991;49.368;8.528;2022-08-19T11:56:13;5.43;;;5.03;;
5931;SDS011;2991;49.368;8.528;2022-08-19T11:58:39;5.40;;;5.03;;
5931;SDS011;2991;49.368;8.528;2022-08-19T12:01:10;5.15;;;4.63;;
5931;SDS011;2991;49.368;8.528;2022-08-19T12:03:39;5.35;;;5.05;;
5931;SDS011;2991;49.368;8.528;2022-08-19T12:06:06;5.75;;;5.30;;
5931;SDS011;2991;49.368;8.528;2022-08-19T12:08:37;5.28;;;4.97;;
5931;SDS011;2991;49.368;8.528;2022-08-19T12:11:03;5.53;;;5.22;;
5931;SDS011;2991;49.368;8.528;2022-08-19T12:13:32;5.55;;;5.25;;
5931;SDS011;2991;49.368;8.528;2022-08-19T12:15:59;5.50;;;5.10;;
5931;SDS011;2991;49.368;8.528;2022-08-19T12:18:25;5.93;;;5.50;;
5931;SDS011;2991;49.368;8.528;2022-08-19T12:20:52;5.20;;;4.90;;
5931;SDS011;2991;49.368;8.528;2022-08-19T12:23:22;4.95;;;4.65;;
5931;SDS011;2991;49.368;8.528;2022-08-19T12:25:48;5.35;;;5.05;;
5931;SDS011;2991;49.368;8.528;2022-08-19T12:28:18;5.97;;;5.47;;
5931;SDS011;2991;49.368;8.528;2022-08-19T12:30:44;5.25;;;4.95;;
5931;SDS011;2991;49.368;8.528;2022-08-19T12:33:10;5.35;;;4.97;;
5931;SDS011;2991;49.368;8.528;2022-08-19T12:35:42;5.57;;;5.18;;
5931;SDS011;2991;49.368;8.528;2022-08-19T12:38:09;5.97;;;5.38;;
5931;SDS011;2991;49.368;8.528;2022-08-19T12:40:35;5.28;;;4.88;;
5931;SDS011;2991;49.368;8.528;2022-08-19T12:43:01;5.47;;;5.00;;
5931;SDS011;2991;49.368;8.528;2022-08-19T12:45:27;5.60;;;5.20;;
5931;SDS011;2991;49.368;8.528;2022-08-19T12:47:53;5.50;;;5.10;;
5931;SDS011;2991;49.368;8.528;2022-08-19T12:50:19;5.78;;;5.40;;
5931;SDS011;2991;49.368;8.528;2022-08-19T12:52:46;4.93;;;4.63;;
5931;SDS011;2991;49.368;8.528;2022-08-19T12:55:13;4.95;;;4.55;;
5931;SDS011;2991;49.368;8.528;2022-08-19T12:57:39;5.90;;;5.50;;
5931;SDS011;2991;49.368;8.528;2022-08-19T13:02:35;5.03;;;4.72;;
5931;SDS011;2991;49.368;8.528;2022-08-19T13:05:04;4.90;;;4.60;;
5931;SDS011;2991;49.368;8.528;2022-08-19T13:07:32;5.35;;;5.05;;
5931;SDS011;2991;49.368;8.528;2022-08-19T13:09:57;5.22;;;4.90;;
5931;SDS011;2991;49.368;8.528;2022-08-19T13:12:23;5.55;;;5.15;;
5931;SDS011;2991;49.368;8.528;2022-08-19T13:14:51;4.63;;;4.32;;
5931;SDS011;2991;49.368;8.528;2022-08-19T13:17:20;5.53;;;5.22;;
5931;SDS011;2991;49.368;8.528;2022-08-19T13:19:46;4.68;;;4.38;;
5931;SDS011;2991;49.368;8.528;2022-08-19T13:22:14;5.72;;;5.32;;
5931;SDS011;2991;49.368;8.528;2022-08-19T13:24:40;5.07;;;4.78;;
5931;SDS011;2991;49.368;8.528;2022-08-19T13:27:06;5.53;;;5.13;;
5931;SDS011;2991;49.368;8.528;2022-08-19T13:29:35;4.85;;;4.47;;
5931;SDS011;2991;49.368;8.528;2022-08-19T13:32:19;4.97;;;4.38;;
5931;SDS011;2991;49.368;8.528;2022-08-19T13:35:04;5.43;;;4.93;;
5931;SDS011;2991;49.368;8.528;2022-08-19T13:37:30;9.48;;;4.38;;
5931;SDS011;2991;49.368;8.528;2022-08-19T13:40:10;9.45;;;4.88;;
5931;SDS011;2991;49.368;8.528;2022-08-19T13:42:44;8.43;;;4.75;;
5931;SDS011;2991;49.368;8.528;2022-08-19T13:45:16;5.78;;;4.57;;
5931;SDS011;2991;49.368;8.528;2022-08-19T13:47:51;6.43;;;5.40;;
5931;SDS011;2991;49.368;8.528;2022-08-19T13:50:27;27.80;;;5.97;;
5931;SDS011;2991;49.368;8.528;2022-08-19T13:52:56;39.55;;;6.78;;
5931;SDS011;2991;49.368;8.528;2022-08-19T13:55:22;8.15;;;5.22;;
5931;SDS011;2991;49.368;8.528;2022-08-19T13:57:50;5.85;;;5.25;;
5931;SDS011;2991;49.368;8.528;2022-08-19T14:00:21;6.35;;;5.53;;
5931;SDS011;2991;49.368;8.528;2022-08-19T14:02:51;5.25;;;4.72;;
5931;SDS011;2991;49.368;8.528;2022-08-19T14:05:17;5.72;;;5.22;;
5931;SDS011;2991;49.368;8.528;2022-08-19T14:07:44;6.07;;;5.47;;
5931;SDS011;2991;49.368;8.528;2022-08-19T14:10:11;7.78;;;4.35;;
5931;SDS011;2991;49.368;8.528;2022-08-19T14:12:37;5.93;;;5.15;;
5931;SDS011;2991;49.368;8.528;2022-08-19T14:15:05;5.60;;;5.10;;
5931;SDS011;2991;49.368;8.528;2022-08-19T14:17:32;4.85;;;4.50;;
5931;SDS011;2991;49.368;8.528;2022-08-19T14:20:00;5.47;;;4.97;;
5931;SDS011;2991;49.368;8.528;2022-08-19T14:22:31;5.13;;;4.68;;
5931;SDS011;2991;49.368;8.528;2022-08-19T14:24:57;5.47;;;4.97;;
5931;SDS011;2991;49.368;8.528;2022-08-19T14:27:23;8.73;;;5.00;;
5931;SDS011;2991;49.368;8.528;2022-08-19T14:29:50;6.60;;;4.30;;
5931;SDS011;2991;49.368;8.528;2022-08-19T14:32:18;4.88;;;4.35;;
5931;SDS011;2991;49.368;8.528;2022-08-19T14:34:44;8.75;;;4.55;;
5931;SDS011;2991;49.368;8.528;2022-08-19T14:37:13;6.60;;;4.60;;
5931;SDS011;2991;49.368;8.528;2022-08-19T14:39:39;4.90;;;4.50;;
5931;SDS011;2991;49.368;8.528;2022-08-19T14:42:07;5.95;;;4.63;;
5931;SDS011;2991;49.368;8.528;2022-08-19T14:44:33;5.53;;;4.40;;
5931;SDS011;2991;49.368;8.528;2022-08-19T14:46:59;4.68;;;4.28;;
5931;SDS011;2991;49.368;8.528;2022-08-19T14:49:24;8.05;;;4.10;;
5931;SDS011;2991;49.368;8.528;2022-08-19T14:51:50;6.18;;;4.20;;
5931;SDS011;2991;49.368;8.528;2022-08-19T14:54:15;6.05;;;4.30;;
5931;SDS011;2991;49.368;8.528;2022-08-19T14:56:41;4.30;;;3.67;;
5931;SDS011;2991;49.368;8.528;2022-08-19T14:59:07;7.32;;;4.20;;
5931;SDS011;2991;49.368;8.528;2022-08-19T15:01:32;5.07;;;4.43;;
5931;SDS011;2991;49.368;8.528;2022-08-19T15:03:58;6.50;;;4.65;;
5931;SDS011;2991;49.368;8.528;2022-08-19T15:08:49;5.18;;;4.47;;
5931;SDS011;2991;49.368;8.528;2022-08-19T15:11:17;5.35;;;4.50;;
5931;SDS011;2991;49.368;8.528;2022-08-19T15:13:46;5.20;;;4.05;;
5931;SDS011;2991;49.368;8.528;2022-08-19T15:16:12;4.43;;;4.13;;
5931;SDS011;2991;49.368;8.528;2022-08-19T15:18:41;3.95;;;3.75;;
5931;SDS011;2991;49.368;8.528;2022-08-19T15:21:12;4.57;;;3.95;;